Change the Weather History Date:

Wednesday, November 7, 2012

  Actual Average Record
Temperature  
Mean Temperature 30 °F -  
Max Temperature 35 °F 48 °F 64 °F (2011)
Min Temperature 24 °F 29 °F 24 °F (2006)
Degree Days  
Heating Degree Days 36    
Moisture  
Dew Point 16 °F    
Average Humidity 53    
Maximum Humidity 100    
Minimum Humidity 35    
Precipitation  
Precipitation 0.00 in - - ()
Sea Level Pressure  
Sea Level Pressure 30.05 in    
Wind  
Wind Speed 13 mph (NNE)    
Max Wind Speed 26 mph    
Max Gust Speed 40 mph    
Visibility 10 miles    
Events      
Averages and records for this station are not official NWS values.
T = Trace of Precipitation, MM = Missing Value Source: NWS Daily Summary

Daily Weather History Graph

Daily Weather History Graph

Search for Another Location

Airport or City:

Trip Planner

Search our weather history database for the weather conditions in past years. The results will help you decide how hot, cold, wet, or windy it might be!

Date:

Astronomy

Nov. 07, 2012 Rise Set
Actual Time 6:26 AM EST 4:26 PM EST
Civil Twilight 5:56 AM EST 4:56 PM EST
Nautical Twilight 5:22 AM EST 5:30 PM EST
Astronomical Twilight 4:48 AM EST 6:03 PM EST
Moon No Moon Rise 12:44 PM EST (11/7)
Length of Visible Light 11h 00m
Length of Day
9h 59m
Last Quarter, 43% of the Moon is Illuminated
Nov 7
Last Quarter
Nov 13
New
Nov 20
First Quarter
Nov 28
Full
Dec 6
Last Quarter

Hourly Weather History & Observations

Time (EST) Temp. Windchill Dew Point Humidity Pressure Visibility Wind Dir Wind Speed Gust Speed Precip Events Conditions
12:15 AM 24.8 °F 16.9 °F 19.4 °F 80% 30.19 in 10.0 mi North 6.9 mph - N/A   Clear
12:35 AM 24.8 °F 17.9 °F 19.4 °F 80% 30.21 in 10.0 mi North 5.8 mph - N/A   Clear
12:55 AM 24.8 °F 17.9 °F 21.2 °F 86% 30.21 in 10.0 mi North 5.8 mph - N/A   Clear
1:15 AM 24.8 °F 20.5 °F 17.6 °F 74% 30.22 in 10.0 mi North 3.5 mph - N/A   Clear
1:35 AM 26.6 °F 18.2 °F 21.2 °F 80% 30.20 in 10.0 mi North 8.1 mph - N/A   Clear
1:55 AM 26.6 °F 18.2 °F 15.8 °F 64% 30.20 in 10.0 mi North 8.1 mph - N/A   Clear
2:15 AM 26.6 °F 18.2 °F 15.8 °F 64% 30.20 in 10.0 mi North 8.1 mph - N/A   Clear
2:35 AM 26.6 °F 18.2 °F 17.6 °F 69% 30.20 in 10.0 mi North 8.1 mph - N/A   Clear
2:55 AM 26.6 °F 18.2 °F 12.2 °F 55% 30.20 in 10.0 mi North 8.1 mph - N/A   Clear
3:15 AM 26.6 °F 18.2 °F 19.4 °F 74% 30.19 in 10.0 mi North 8.1 mph - N/A   Clear
3:55 AM 28.4 °F 20.4 °F 17.6 °F 64% 30.21 in 10.0 mi North 8.1 mph - N/A   Mostly Cloudy
4:15 AM 28.4 °F 18.0 °F 19.4 °F 69% 30.19 in 10.0 mi North 12.7 mph 17.3 mph N/A   Overcast
4:35 AM 30.2 °F 20.2 °F 12.2 °F 47% 30.19 in 10.0 mi NNE 12.7 mph 20.7 mph N/A   Overcast
4:55 AM 28.4 °F 17.5 °F 15.8 °F 59% 30.18 in 10.0 mi NNE 13.8 mph - N/A   Mostly Cloudy
5:15 AM 28.4 °F 16.6 °F 15.8 °F 59% 30.17 in 10.0 mi NNE 16.1 mph 20.7 mph N/A   Partly Cloudy
5:35 AM 28.4 °F 15.8 °F 12.2 °F 51% 30.15 in 10.0 mi NNE 18.4 mph 21.9 mph N/A   Clear
5:55 AM 28.4 °F 17.5 °F 17.6 °F 64% 30.17 in 10.0 mi NNE 13.8 mph - N/A   Clear
6:15 AM 28.4 °F 17.5 °F 15.8 °F 59% 30.16 in 10.0 mi NNE 13.8 mph - N/A   Clear
6:35 AM 28.4 °F 16.6 °F 14.0 °F 55% 30.16 in 10.0 mi NNE 16.1 mph - N/A   Clear
6:55 AM 28.4 °F 17.5 °F 17.6 °F 64% 30.17 in 10.0 mi NNE 13.8 mph - N/A   Clear
7:15 AM 28.4 °F 17.0 °F 14.0 °F 55% 30.16 in 10.0 mi NNE 15.0 mph - N/A   Clear
7:35 AM 28.4 °F 16.2 °F 15.8 °F 59% 30.17 in 10.0 mi NNE 17.3 mph 20.7 mph N/A   Clear
7:55 AM 30.2 °F 18.9 °F 19.4 °F 64% 30.17 in 10.0 mi NNE 16.1 mph 20.7 mph N/A   Clear
8:15 AM 30.2 °F 18.1 °F 14.0 °F 51% 30.14 in 10.0 mi NNE 18.4 mph 24.2 mph N/A   Clear
8:35 AM 30.2 °F 18.1 °F 15.8 °F 55% 30.13 in 10.0 mi NNE 18.4 mph 26.5 mph N/A   Clear
9:15 AM 32.0 °F 20.5 °F 12.2 °F 44% 30.13 in 10.0 mi NNE 18.4 mph 25.3 mph N/A   Clear
9:35 AM 32.0 °F 20.8 °F 15.8 °F 51% 30.13 in 10.0 mi NNE 17.3 mph 28.8 mph N/A   Clear
9:55 AM 32.0 °F 20.1 °F 15.8 °F 51% 30.12 in 10.0 mi NNE 19.6 mph - N/A   Clear
10:35 AM 33.8 °F 22.5 °F 15.8 °F 48% 30.10 in 10.0 mi NNE 19.6 mph 25.3 mph N/A   Clear
10:55 AM 33.8 °F 22.8 °F 15.8 °F 48% 30.09 in 10.0 mi NNE 18.4 mph 21.9 mph N/A   Clear
11:15 AM 33.8 °F 22.5 °F 12.2 °F 41% 30.08 in 10.0 mi NNE 19.6 mph 25.3 mph N/A   Clear
11:35 AM 33.8 °F 24.8 °F 15.8 °F 48% 30.08 in 10.0 mi NNE 12.7 mph 26.5 mph N/A   Clear
11:55 AM 33.8 °F 23.5 °F 15.8 °F 48% 30.06 in 10.0 mi NNE 16.1 mph 21.9 mph N/A   Clear
12:15 PM 33.8 °F 22.5 °F 12.2 °F 41% 30.04 in 10.0 mi NNE 19.6 mph 25.3 mph N/A   Partly Cloudy
12:35 PM 33.8 °F 23.2 °F 14.0 °F 44% 30.03 in 10.0 mi NNE 17.3 mph 25.3 mph N/A   Clear
12:55 PM 33.8 °F 24.3 °F 15.8 °F 48% 30.03 in 10.0 mi NNE 13.8 mph 24.2 mph N/A   Clear
1:15 PM 33.8 °F 23.5 °F 14.0 °F 44% 30.02 in 10.0 mi North 16.1 mph 24.2 mph N/A   Partly Cloudy
1:35 PM 33.8 °F 23.9 °F 10.4 °F 38% 30.01 in 10.0 mi NNE 15.0 mph - N/A   Partly Cloudy
1:55 PM 33.8 °F 23.5 °F 14.0 °F 44% 30.00 in 10.0 mi North 16.1 mph 21.9 mph N/A   Scattered Clouds
2:15 PM 33.8 °F 22.8 °F 15.8 °F 48% 29.98 in 10.0 mi NNE 18.4 mph 23.0 mph N/A   Mostly Cloudy
2:35 PM 33.8 °F 23.9 °F 12.2 °F 41% 29.98 in 10.0 mi NNE 15.0 mph 20.7 mph N/A   Overcast
2:55 PM 33.8 °F 24.3 °F 12.2 °F 41% 29.98 in 10.0 mi North 13.8 mph 20.7 mph N/A   Overcast
3:15 PM 33.8 °F 24.3 °F 15.8 °F 48% 29.99 in 10.0 mi NNE 13.8 mph 21.9 mph N/A   Overcast
3:35 PM 33.8 °F 23.5 °F 17.6 °F 52% 29.97 in 10.0 mi North 16.1 mph - N/A   Overcast
3:55 PM 33.8 °F 24.3 °F 15.8 °F 48% 29.97 in 10.0 mi North 13.8 mph 21.9 mph N/A   Overcast
4:15 PM 33.8 °F 23.5 °F 12.2 °F 41% 29.95 in 10.0 mi NNE 16.1 mph - N/A   Overcast
4:35 PM 35.6 °F 25.9 °F 14.0 °F 41% 29.95 in 10.0 mi North 16.1 mph 23.0 mph N/A   Overcast
4:55 PM 35.6 °F 24.5 °F 15.8 °F 44% 29.95 in 10.0 mi NNE 20.7 mph 29.9 mph N/A   Overcast
5:15 PM 35.6 °F 26.2 °F 14.0 °F 41% 29.95 in 10.0 mi NNE 15.0 mph 24.2 mph N/A   Overcast
5:35 PM 35.6 °F 25.2 °F 10.4 °F 35% 29.96 in 10.0 mi NNE 18.4 mph 27.6 mph N/A   Overcast
5:55 PM 35.6 °F 24.8 °F 12.2 °F 38% 29.95 in 10.0 mi NNE 19.6 mph 26.5 mph N/A   Overcast
6:35 PM 35.6 °F 25.2 °F 12.2 °F 38% 29.94 in 10.0 mi NNE 18.4 mph 29.9 mph N/A   Overcast
6:55 PM 35.6 °F 24.5 °F 10.4 °F 35% 29.93 in 10.0 mi NNE 20.7 mph 26.5 mph N/A   Overcast
7:15 PM 35.6 °F 24.8 °F 12.2 °F 38% 29.93 in 10.0 mi NNE 19.6 mph 26.5 mph N/A   Overcast
7:35 PM 35.6 °F 25.2 °F 12.2 °F 38% 29.93 in 10.0 mi NNE 18.4 mph 23.0 mph N/A   Overcast
7:55 PM 35.6 °F 24.5 °F 12.2 °F 38% 29.93 in 10.0 mi NE 20.7 mph 28.8 mph N/A   Overcast
8:15 PM 35.6 °F 25.5 °F 10.4 °F 35% 29.93 in 10.0 mi NNE 17.3 mph 31.1 mph N/A   Overcast
8:35 PM 35.6 °F 25.2 °F 12.2 °F 38% 29.92 in 10.0 mi NNE 18.4 mph 25.3 mph N/A   Overcast
9:15 PM 35.6 °F 24.8 °F 15.8 °F 44% 29.92 in 10.0 mi NE 19.6 mph 27.6 mph N/A   Overcast
9:35 PM 35.6 °F 26.2 °F 12.2 °F 38% 29.91 in 10.0 mi NNE 15.0 mph 26.5 mph N/A   Overcast
9:55 PM 35.6 °F 23.4 °F 15.8 °F 44% 29.91 in 9.0 mi NE 25.3 mph 33.4 mph N/A   Overcast
10:15 PM 35.6 °F 23.2 °F 19.4 °F 52% 29.89 in 10.0 mi NE 26.5 mph 40.3 mph N/A   Overcast
10:35 PM 33.8 °F 21.6 °F 21.2 °F 60% 29.88 in 7.0 mi NNE 23.0 mph 33.4 mph N/A   Overcast
10:55 PM 32.0 °F 19.8 °F 19.4 °F 60% 29.87 in 4.0 mi NNE 20.7 mph 26.5 mph N/A   Overcast
11:15 PM 30.2 °F 18.5 °F 30.2 °F 100% 29.87 in 1.8 mi North 17.3 mph 32.2 mph N/A   Overcast
11:35 PM 30.2 °F 17.8 °F 24.8 °F 80% 29.86 in 1.2 mi North 19.6 mph 26.5 mph N/A   Overcast
11:55 PM 30.2 °F 17.1 °F 24.8 °F 80% 29.84 in 1.5 mi North 21.9 mph 26.5 mph N/A   Overcast